sensor_id;sensor_type;location;lat;lon;timestamp;P1;durP1;ratioP1;P2;durP2;ratioP2
17424;SDS011;8830;50.978;5.058;2023-06-14T00:01:16;5.53;;;5.03;;
17424;SDS011;8830;50.978;5.058;2023-06-14T00:03:45;7.82;;;4.93;;
17424;SDS011;8830;50.978;5.058;2023-06-14T00:06:13;6.85;;;5.57;;
17424;SDS011;8830;50.978;5.058;2023-06-14T00:08:41;9.57;;;5.47;;
17424;SDS011;8830;50.978;5.058;2023-06-14T00:11:08;10.88;;;5.63;;
17424;SDS011;8830;50.978;5.058;2023-06-14T00:13:35;5.68;;;5.13;;
17424;SDS011;8830;50.978;5.058;2023-06-14T00:16:03;9.27;;;5.05;;
17424;SDS011;8830;50.978;5.058;2023-06-14T00:18:30;7.20;;;5.25;;
17424;SDS011;8830;50.978;5.058;2023-06-14T00:20:57;5.80;;;5.03;;
17424;SDS011;8830;50.978;5.058;2023-06-14T00:23:25;6.72;;;5.72;;
17424;SDS011;8830;50.978;5.058;2023-06-14T00:25:52;5.60;;;5.10;;
17424;SDS011;8830;50.978;5.058;2023-06-14T00:28:20;5.43;;;5.03;;
17424;SDS011;8830;50.978;5.058;2023-06-14T00:30:47;5.95;;;5.35;;
17424;SDS011;8830;50.978;5.058;2023-06-14T00:33:15;7.07;;;4.95;;
17424;SDS011;8830;50.978;5.058;2023-06-14T00:35:43;8.77;;;5.38;;
17424;SDS011;8830;50.978;5.058;2023-06-14T00:38:10;5.93;;;5.40;;
17424;SDS011;8830;50.978;5.058;2023-06-14T00:40:37;5.93;;;5.07;;
17424;SDS011;8830;50.978;5.058;2023-06-14T00:43:04;6.57;;;5.50;;
17424;SDS011;8830;50.978;5.058;2023-06-14T00:45:31;6.50;;;5.30;;
17424;SDS011;8830;50.978;5.058;2023-06-14T00:48:01;7.28;;;5.30;;
17424;SDS011;8830;50.978;5.058;2023-06-14T00:50:30;5.57;;;5.07;;
17424;SDS011;8830;50.978;5.058;2023-06-14T00:52:58;8.95;;;5.75;;
17424;SDS011;8830;50.978;5.058;2023-06-14T00:55:26;7.38;;;5.70;;
17424;SDS011;8830;50.978;5.058;2023-06-14T00:57:53;5.90;;;5.40;;
17424;SDS011;8830;50.978;5.058;2023-06-14T01:00:21;5.97;;;5.40;;
17424;SDS011;8830;50.978;5.058;2023-06-14T01:02:49;6.18;;;5.70;;
17424;SDS011;8830;50.978;5.058;2023-06-14T01:05:15;6.55;;;6.03;;
17424;SDS011;8830;50.978;5.058;2023-06-14T01:07:50;5.93;;;5.47;;
17424;SDS011;8830;50.978;5.058;2023-06-14T01:10:33;5.88;;;5.47;;
17424;SDS011;8830;50.978;5.058;2023-06-14T01:13:08;5.70;;;5.10;;
17424;SDS011;8830;50.978;5.058;2023-06-14T01:15:39;6.72;;;6.00;;
17424;SDS011;8830;50.978;5.058;2023-06-14T01:18:09;7.43;;;5.90;;
17424;SDS011;8830;50.978;5.058;2023-06-14T01:20:42;9.07;;;5.27;;
17424;SDS011;8830;50.978;5.058;2023-06-14T01:23:17;6.13;;;5.30;;
17424;SDS011;8830;50.978;5.058;2023-06-14T01:25:44;6.00;;;5.47;;
17424;SDS011;8830;50.978;5.058;2023-06-14T01:28:12;9.43;;;6.35;;
17424;SDS011;8830;50.978;5.058;2023-06-14T01:30:42;5.90;;;5.43;;
17424;SDS011;8830;50.978;5.058;2023-06-14T01:33:13;9.13;;;5.77;;
17424;SDS011;8830;50.978;5.058;2023-06-14T01:35:42;6.73;;;6.20;;
17424;SDS011;8830;50.978;5.058;2023-06-14T01:38:10;7.68;;;6.00;;
17424;SDS011;8830;50.978;5.058;2023-06-14T01:40:39;6.67;;;6.03;;
17424;SDS011;8830;50.978;5.058;2023-06-14T01:43:07;6.27;;;5.80;;
17424;SDS011;8830;50.978;5.058;2023-06-14T01:45:34;9.10;;;6.27;;
17424;SDS011;8830;50.978;5.058;2023-06-14T01:48:03;7.07;;;5.80;;
17424;SDS011;8830;50.978;5.058;2023-06-14T01:50:31;7.00;;;6.50;;
17424;SDS011;8830;50.978;5.058;2023-06-14T01:52:58;10.17;;;6.33;;
17424;SDS011;8830;50.978;5.058;2023-06-14T01:55:25;6.67;;;5.87;;
17424;SDS011;8830;50.978;5.058;2023-06-14T01:57:54;5.83;;;5.43;;
17424;SDS011;8830;50.978;5.058;2023-06-14T02:00:21;6.87;;;6.27;;
17424;SDS011;8830;50.978;5.058;2023-06-14T02:02:48;6.37;;;5.87;;
17424;SDS011;8830;50.978;5.058;2023-06-14T02:05:15;6.63;;;6.07;;
17424;SDS011;8830;50.978;5.058;2023-06-14T02:07:44;7.53;;;6.60;;
17424;SDS011;8830;50.978;5.058;2023-06-14T02:10:12;7.30;;;6.63;;
17424;SDS011;8830;50.978;5.058;2023-06-14T02:12:40;6.70;;;6.10;;
17424;SDS011;8830;50.978;5.058;2023-06-14T02:15:09;7.27;;;6.57;;
17424;SDS011;8830;50.978;5.058;2023-06-14T02:17:41;7.47;;;6.33;;
17424;SDS011;8830;50.978;5.058;2023-06-14T02:20:09;13.67;;;6.10;;
17424;SDS011;8830;50.978;5.058;2023-06-14T02:22:37;7.00;;;6.50;;
17424;SDS011;8830;50.978;5.058;2023-06-14T02:25:04;7.20;;;6.60;;
17424;SDS011;8830;50.978;5.058;2023-06-14T02:27:32;7.17;;;6.47;;
17424;SDS011;8830;50.978;5.058;2023-06-14T02:30:00;8.70;;;6.43;;
17424;SDS011;8830;50.978;5.058;2023-06-14T02:32:28;8.85;;;6.40;;
17424;SDS011;8830;50.978;5.058;2023-06-14T02:34:56;6.83;;;6.23;;
17424;SDS011;8830;50.978;5.058;2023-06-14T02:37:24;7.83;;;6.73;;
17424;SDS011;8830;50.978;5.058;2023-06-14T02:39:51;9.10;;;6.60;;
17424;SDS011;8830;50.978;5.058;2023-06-14T02:42:18;7.07;;;6.20;;
17424;SDS011;8830;50.978;5.058;2023-06-14T02:44:45;7.50;;;6.90;;
17424;SDS011;8830;50.978;5.058;2023-06-14T02:47:16;7.47;;;6.77;;
17424;SDS011;8830;50.978;5.058;2023-06-14T02:49:45;8.30;;;6.63;;
17424;SDS011;8830;50.978;5.058;2023-06-14T02:52:12;7.70;;;7.03;;
17424;SDS011;8830;50.978;5.058;2023-06-14T02:54:40;7.73;;;7.13;;
17424;SDS011;8830;50.978;5.058;2023-06-14T02:57:07;10.53;;;7.60;;
17424;SDS011;8830;50.978;5.058;2023-06-14T02:59:36;7.13;;;6.53;;
17424;SDS011;8830;50.978;5.058;2023-06-14T03:02:03;7.50;;;6.80;;
17424;SDS011;8830;50.978;5.058;2023-06-14T03:04:30;7.47;;;6.72;;
17424;SDS011;8830;50.978;5.058;2023-06-14T03:07:01;6.93;;;6.40;;
17424;SDS011;8830;50.978;5.058;2023-06-14T03:09:34;9.30;;;6.60;;
17424;SDS011;8830;50.978;5.058;2023-06-14T03:12:02;7.73;;;6.53;;
17424;SDS011;8830;50.978;5.058;2023-06-14T03:14:30;8.90;;;7.20;;
17424;SDS011;8830;50.978;5.058;2023-06-14T03:17:00;8.93;;;7.10;;
17424;SDS011;8830;50.978;5.058;2023-06-14T03:19:27;8.03;;;6.23;;
17424;SDS011;8830;50.978;5.058;2023-06-14T03:21:54;7.30;;;6.60;;
17424;SDS011;8830;50.978;5.058;2023-06-14T03:24:24;7.67;;;6.87;;
17424;SDS011;8830;50.978;5.058;2023-06-14T03:26:52;6.80;;;6.30;;
17424;SDS011;8830;50.978;5.058;2023-06-14T03:29:19;7.40;;;6.53;;
17424;SDS011;8830;50.978;5.058;2023-06-14T03:32:00;7.67;;;6.40;;
17424;SDS011;8830;50.978;5.058;2023-06-14T03:34:28;13.37;;;6.40;;
17424;SDS011;8830;50.978;5.058;2023-06-14T03:36:55;10.90;;;6.10;;
17424;SDS011;8830;50.978;5.058;2023-06-14T03:39:24;7.47;;;6.33;;
17424;SDS011;8830;50.978;5.058;2023-06-14T03:41:51;9.10;;;6.70;;
17424;SDS011;8830;50.978;5.058;2023-06-14T03:44:19;9.10;;;6.33;;
17424;SDS011;8830;50.978;5.058;2023-06-14T03:46:46;10.07;;;6.37;;
17424;SDS011;8830;50.978;5.058;2023-06-14T03:49:14;10.40;;;6.93;;
17424;SDS011;8830;50.978;5.058;2023-06-14T03:51:42;8.83;;;6.93;;
17424;SDS011;8830;50.978;5.058;2023-06-14T03:54:10;9.43;;;6.30;;
17424;SDS011;8830;50.978;5.058;2023-06-14T03:56:38;7.93;;;7.13;;
17424;SDS011;8830;50.978;5.058;2023-06-14T03:59:06;7.27;;;6.60;;
17424;SDS011;8830;50.978;5.058;2023-06-14T04:01:33;8.70;;;6.67;;
17424;SDS011;8830;50.978;5.058;2023-06-14T04:04:00;7.37;;;6.43;;
17424;SDS011;8830;50.978;5.058;2023-06-14T04:06:27;7.90;;;6.97;;
17424;SDS011;8830;50.978;5.058;2023-06-14T04:08:58;7.87;;;6.33;;
17424;SDS011;8830;50.978;5.058;2023-06-14T04:11:29;7.33;;;6.77;;
17424;SDS011;8830;50.978;5.058;2023-06-14T04:13:58;9.60;;;6.80;;
17424;SDS011;8830;50.978;5.058;2023-06-14T04:16:26;10.47;;;6.90;;
17424;SDS011;8830;50.978;5.058;2023-06-14T04:18:55;12.40;;;7.07;;
17424;SDS011;8830;50.978;5.058;2023-06-14T04:21:23;8.53;;;7.10;;
17424;SDS011;8830;50.978;5.058;2023-06-14T04:23:51;7.67;;;6.97;;
17424;SDS011;8830;50.978;5.058;2023-06-14T04:26:20;7.53;;;6.93;;
17424;SDS011;8830;50.978;5.058;2023-06-14T04:28:48;7.20;;;6.70;;
17424;SDS011;8830;50.978;5.058;2023-06-14T04:31:17;8.07;;;6.80;;
17424;SDS011;8830;50.978;5.058;2023-06-14T04:33:50;10.00;;;6.93;;
17424;SDS011;8830;50.978;5.058;2023-06-14T04:36:18;8.50;;;6.70;;
17424;SDS011;8830;50.978;5.058;2023-06-14T04:38:46;10.75;;;7.25;;
17424;SDS011;8830;50.978;5.058;2023-06-14T04:41:14;10.00;;;7.43;;
17424;SDS011;8830;50.978;5.058;2023-06-14T04:43:43;7.90;;;6.77;;
17424;SDS011;8830;50.978;5.058;2023-06-14T04:46:13;7.28;;;6.63;;
17424;SDS011;8830;50.978;5.058;2023-06-14T04:48:42;9.10;;;6.30;;
17424;SDS011;8830;50.978;5.058;2023-06-14T04:51:12;7.35;;;6.70;;
17424;SDS011;8830;50.978;5.058;2023-06-14T04:53:40;11.65;;;6.95;;
17424;SDS011;8830;50.978;5.058;2023-06-14T04:56:08;8.73;;;7.03;;
17424;SDS011;8830;50.978;5.058;2023-06-14T04:58:35;7.50;;;6.80;;
17424;SDS011;8830;50.978;5.058;2023-06-14T05:01:03;9.63;;;6.78;;
17424;SDS011;8830;50.978;5.058;2023-06-14T05:03:30;7.75;;;7.03;;
17424;SDS011;8830;50.978;5.058;2023-06-14T05:06:01;8.43;;;6.82;;
17424;SDS011;8830;50.978;5.058;2023-06-14T05:08:28;7.22;;;6.60;;
17424;SDS011;8830;50.978;5.058;2023-06-14T05:10:55;10.63;;;6.80;;
17424;SDS011;8830;50.978;5.058;2023-06-14T05:13:23;9.20;;;7.40;;
17424;SDS011;8830;50.978;5.058;2023-06-14T05:15:54;12.85;;;7.28;;
17424;SDS011;8830;50.978;5.058;2023-06-14T05:18:22;8.52;;;7.60;;
17424;SDS011;8830;50.978;5.058;2023-06-14T05:20:50;8.00;;;7.13;;
17424;SDS011;8830;50.978;5.058;2023-06-14T05:23:18;10.70;;;7.75;;
17424;SDS011;8830;50.978;5.058;2023-06-14T05:25:46;9.85;;;7.38;;
17424;SDS011;8830;50.978;5.058;2023-06-14T05:28:13;8.82;;;7.35;;
17424;SDS011;8830;50.978;5.058;2023-06-14T05:30:41;9.15;;;7.75;;
17424;SDS011;8830;50.978;5.058;2023-06-14T05:33:09;11.68;;;7.78;;
17424;SDS011;8830;50.978;5.058;2023-06-14T05:35:36;7.85;;;7.10;;
17424;SDS011;8830;50.978;5.058;2023-06-14T05:38:03;10.27;;;7.15;;
17424;SDS011;8830;50.978;5.058;2023-06-14T05:40:32;10.65;;;8.27;;
17424;SDS011;8830;50.978;5.058;2023-06-14T05:42:59;8.43;;;7.70;;
17424;SDS011;8830;50.978;5.058;2023-06-14T05:45:26;11.02;;;7.43;;
17424;SDS011;8830;50.978;5.058;2023-06-14T05:47:54;8.60;;;7.32;;
17424;SDS011;8830;50.978;5.058;2023-06-14T05:50:21;10.43;;;7.50;;
17424;SDS011;8830;50.978;5.058;2023-06-14T05:52:48;7.97;;;7.32;;
17424;SDS011;8830;50.978;5.058;2023-06-14T05:55:16;10.07;;;7.07;;
17424;SDS011;8830;50.978;5.058;2023-06-14T05:57:46;10.27;;;7.40;;
17424;SDS011;8830;50.978;5.058;2023-06-14T06:00:14;10.90;;;8.05;;
17424;SDS011;8830;50.978;5.058;2023-06-14T06:02:43;8.05;;;7.18;;
17424;SDS011;8830;50.978;5.058;2023-06-14T06:05:10;9.30;;;7.38;;
17424;SDS011;8830;50.978;5.058;2023-06-14T06:07:38;10.00;;;7.70;;
17424;SDS011;8830;50.978;5.058;2023-06-14T06:10:07;8.57;;;7.78;;
17424;SDS011;8830;50.978;5.058;2023-06-14T06:12:35;9.00;;;7.10;;
17424;SDS011;8830;50.978;5.058;2023-06-14T06:15:03;7.88;;;7.18;;
17424;SDS011;8830;50.978;5.058;2023-06-14T06:17:31;8.05;;;6.50;;
17424;SDS011;8830;50.978;5.058;2023-06-14T06:19:59;10.68;;;6.38;;
17424;SDS011;8830;50.978;5.058;2023-06-14T06:22:26;10.60;;;7.28;;
17424;SDS011;8830;50.978;5.058;2023-06-14T06:24:53;8.35;;;7.03;;
17424;SDS011;8830;50.978;5.058;2023-06-14T06:27:21;8.68;;;7.07;;
17424;SDS011;8830;50.978;5.058;2023-06-14T06:29:48;10.73;;;6.75;;
17424;SDS011;8830;50.978;5.058;2023-06-14T06:32:18;8.07;;;7.28;;
17424;SDS011;8830;50.978;5.058;2023-06-14T06:34:46;10.93;;;7.20;;
17424;SDS011;8830;50.978;5.058;2023-06-14T06:37:13;7.88;;;6.57;;
17424;SDS011;8830;50.978;5.058;2023-06-14T06:39:41;7.68;;;6.50;;
17424;SDS011;8830;50.978;5.058;2023-06-14T06:42:09;7.72;;;6.68;;
17424;SDS011;8830;50.978;5.058;2023-06-14T06:44:37;8.02;;;6.75;;
17424;SDS011;8830;50.978;5.058;2023-06-14T06:47:04;8.05;;;7.25;;
17424;SDS011;8830;50.978;5.058;2023-06-14T06:49:33;7.63;;;6.90;;
17424;SDS011;8830;50.978;5.058;2023-06-14T06:52:00;8.57;;;6.90;;
17424;SDS011;8830;50.978;5.058;2023-06-14T06:54:28;8.23;;;6.40;;
17424;SDS011;8830;50.978;5.058;2023-06-14T06:56:55;7.60;;;6.82;;
17424;SDS011;8830;50.978;5.058;2023-06-14T06:59:23;6.90;;;6.30;;
17424;SDS011;8830;50.978;5.058;2023-06-14T07:01:50;6.97;;;6.40;;
17424;SDS011;8830;50.978;5.058;2023-06-14T07:04:17;6.28;;;5.78;;
17424;SDS011;8830;50.978;5.058;2023-06-14T07:06:46;7.35;;;6.13;;
17424;SDS011;8830;50.978;5.058;2023-06-14T07:09:13;6.82;;;6.25;;
17424;SDS011;8830;50.978;5.058;2023-06-14T07:11:41;11.60;;;6.97;;
17424;SDS011;8830;50.978;5.058;2023-06-14T07:14:08;10.02;;;6.60;;
17424;SDS011;8830;50.978;5.058;2023-06-14T07:16:36;8.77;;;6.65;;
17424;SDS011;8830;50.978;5.058;2023-06-14T07:19:04;12.52;;;7.05;;
17424;SDS011;8830;50.978;5.058;2023-06-14T07:21:31;7.03;;;6.43;;
17424;SDS011;8830;50.978;5.058;2023-06-14T07:24:00;9.68;;;6.72;;
17424;SDS011;8830;50.978;5.058;2023-06-14T07:26:27;7.88;;;6.40;;
17424;SDS011;8830;50.978;5.058;2023-06-14T07:28:54;9.75;;;6.72;;
17424;SDS011;8830;50.978;5.058;2023-06-14T07:31:21;12.20;;;6.63;;
17424;SDS011;8830;50.978;5.058;2023-06-14T07:33:48;11.00;;;6.63;;
17424;SDS011;8830;50.978;5.058;2023-06-14T07:36:15;6.85;;;6.25;;
17424;SDS011;8830;50.978;5.058;2023-06-14T07:38:43;8.35;;;6.53;;
17424;SDS011;8830;50.978;5.058;2023-06-14T07:41:12;10.52;;;6.35;;
17424;SDS011;8830;50.978;5.058;2023-06-14T07:43:40;7.38;;;6.78;;
17424;SDS011;8830;50.978;5.058;2023-06-14T07:46:07;7.65;;;6.88;;
17424;SDS011;8830;50.978;5.058;2023-06-14T07:48:34;6.35;;;5.95;;
17424;SDS011;8830;50.978;5.058;2023-06-14T07:51:01;7.35;;;6.65;;
17424;SDS011;8830;50.978;5.058;2023-06-14T07:53:29;8.98;;;5.93;;
17424;SDS011;8830;50.978;5.058;2023-06-14T07:55:56;8.43;;;6.85;;
17424;SDS011;8830;50.978;5.058;2023-06-14T07:58:25;6.75;;;5.72;;
17424;SDS011;8830;50.978;5.058;2023-06-14T08:00:52;8.13;;;5.85;;
17424;SDS011;8830;50.978;5.058;2023-06-14T08:03:19;9.15;;;5.93;;
17424;SDS011;8830;50.978;5.058;2023-06-14T08:05:47;8.93;;;6.43;;
17424;SDS011;8830;50.978;5.058;2023-06-14T08:08:15;6.30;;;5.80;;
17424;SDS011;8830;50.978;5.058;2023-06-14T08:10:42;21.30;;;6.40;;
17424;SDS011;8830;50.978;5.058;2023-06-14T08:13:10;6.40;;;5.82;;
17424;SDS011;8830;50.978;5.058;2023-06-14T08:15:39;10.13;;;5.47;;
17424;SDS011;8830;50.978;5.058;2023-06-14T08:18:06;8.00;;;5.97;;
17424;SDS011;8830;50.978;5.058;2023-06-14T08:20:33;9.77;;;5.88;;
17424;SDS011;8830;50.978;5.058;2023-06-14T08:23:02;8.43;;;6.10;;
17424;SDS011;8830;50.978;5.058;2023-06-14T08:25:30;8.25;;;6.05;;
17424;SDS011;8830;50.978;5.058;2023-06-14T08:27:58;7.78;;;5.47;;
17424;SDS011;8830;50.978;5.058;2023-06-14T08:30:25;6.20;;;5.60;;
17424;SDS011;8830;50.978;5.058;2023-06-14T08:32:54;6.10;;;5.50;;
17424;SDS011;8830;50.978;5.058;2023-06-14T08:35:22;5.80;;;5.38;;
17424;SDS011;8830;50.978;5.058;2023-06-14T08:37:50;7.15;;;5.50;;
17424;SDS011;8830;50.978;5.058;2023-06-14T08:40:18;8.02;;;5.55;;
17424;SDS011;8830;50.978;5.058;2023-06-14T08:42:50;9.73;;;5.53;;
17424;SDS011;8830;50.978;5.058;2023-06-14T08:45:18;10.23;;;6.05;;
17424;SDS011;8830;50.978;5.058;2023-06-14T08:47:46;6.10;;;5.47;;
17424;SDS011;8830;50.978;5.058;2023-06-14T08:50:20;6.35;;;5.38;;
17424;SDS011;8830;50.978;5.058;2023-06-14T08:52:51;7.53;;;4.88;;
17424;SDS011;8830;50.978;5.058;2023-06-14T08:55:22;9.60;;;5.50;;
17424;SDS011;8830;50.978;5.058;2023-06-14T08:57:53;5.57;;;5.07;;
17424;SDS011;8830;50.978;5.058;2023-06-14T09:00:23;6.85;;;5.45;;
17424;SDS011;8830;50.978;5.058;2023-06-14T09:02:50;6.53;;;5.15;;
17424;SDS011;8830;50.978;5.058;2023-06-14T09:05:22;8.60;;;4.82;;
17424;SDS011;8830;50.978;5.058;2023-06-14T09:07:50;8.45;;;5.10;;
17424;SDS011;8830;50.978;5.058;2023-06-14T09:10:20;6.10;;;4.18;;
17424;SDS011;8830;50.978;5.058;2023-06-14T09:12:48;4.72;;;4.32;;
17424;SDS011;8830;50.978;5.058;2023-06-14T09:15:16;8.95;;;5.10;;
17424;SDS011;8830;50.978;5.058;2023-06-14T09:17:44;7.15;;;4.57;;
17424;SDS011;8830;50.978;5.058;2023-06-14T09:20:11;4.85;;;4.45;;
17424;SDS011;8830;50.978;5.058;2023-06-14T09:22:44;4.90;;;4.55;;
17424;SDS011;8830;50.978;5.058;2023-06-14T09:25:12;6.32;;;4.78;;
17424;SDS011;8830;50.978;5.058;2023-06-14T09:27:40;9.88;;;4.95;;
17424;SDS011;8830;50.978;5.058;2023-06-14T09:30:09;8.80;;;4.93;;
17424;SDS011;8830;50.978;5.058;2023-06-14T09:32:36;5.50;;;5.00;;
17424;SDS011;8830;50.978;5.058;2023-06-14T09:35:05;9.95;;;4.45;;
17424;SDS011;8830;50.978;5.058;2023-06-14T09:37:33;6.07;;;4.03;;
17424;SDS011;8830;50.978;5.058;2023-06-14T09:40:04;10.55;;;3.78;;
17424;SDS011;8830;50.978;5.058;2023-06-14T09:42:32;9.25;;;4.00;;
17424;SDS011;8830;50.978;5.058;2023-06-14T09:45:01;7.45;;;4.10;;
17424;SDS011;8830;50.978;5.058;2023-06-14T09:47:29;6.80;;;3.83;;
17424;SDS011;8830;50.978;5.058;2023-06-14T09:49:57;6.75;;;3.65;;
17424;SDS011;8830;50.978;5.058;2023-06-14T09:52:25;6.10;;;3.95;;
17424;SDS011;8830;50.978;5.058;2023-06-14T09:54:56;7.22;;;3.75;;
17424;SDS011;8830;50.978;5.058;2023-06-14T09:57:27;4.88;;;3.40;;
17424;SDS011;8830;50.978;5.058;2023-06-14T09:59:58;10.68;;;4.15;;
17424;SDS011;8830;50.978;5.058;2023-06-14T10:02:33;5.85;;;3.30;;
17424;SDS011;8830;50.978;5.058;2023-06-14T10:05:04;6.93;;;3.45;;
17424;SDS011;8830;50.978;5.058;2023-06-14T10:07:35;4.75;;;3.45;;
17424;SDS011;8830;50.978;5.058;2023-06-14T10:10:06;6.88;;;3.60;;
17424;SDS011;8830;50.978;5.058;2023-06-14T10:12:35;11.13;;;3.33;;
17424;SDS011;8830;50.978;5.058;2023-06-14T10:15:03;7.05;;;3.17;;
17424;SDS011;8830;50.978;5.058;2023-06-14T10:17:33;4.22;;;3.30;;
17424;SDS011;8830;50.978;5.058;2023-06-14T10:20:17;7.65;;;3.58;;
17424;SDS011;8830;50.978;5.058;2023-06-14T10:22:51;7.88;;;3.60;;
17424;SDS011;8830;50.978;5.058;2023-06-14T10:25:27;3.97;;;3.35;;
17424;SDS011;8830;50.978;5.058;2023-06-14T10:31:03;4.60;;;3.22;;
17424;SDS011;8830;50.978;5.058;2023-06-14T10:33:34;4.15;;;3.55;;
17424;SDS011;8830;50.978;5.058;2023-06-14T10:38:59;5.65;;;3.10;;
17424;SDS011;8830;50.978;5.058;2023-06-14T10:41:28;6.78;;;3.10;;
17424;SDS011;8830;50.978;5.058;2023-06-14T10:47:08;6.38;;;3.25;;
17424;SDS011;8830;50.978;5.058;2023-06-14T10:49:39;5.90;;;3.22;;
17424;SDS011;8830;50.978;5.058;2023-06-14T10:52:08;4.72;;;2.83;;
17424;SDS011;8830;50.978;5.058;2023-06-14T10:55:00;6.05;;;2.50;;
17424;SDS011;8830;50.978;5.058;2023-06-14T10:57:29;3.63;;;2.70;;
17424;SDS011;8830;50.978;5.058;2023-06-14T10:59:59;5.65;;;3.03;;
17424;SDS011;8830;50.978;5.058;2023-06-14T11:02:47;8.65;;;2.80;;
17424;SDS011;8830;50.978;5.058;2023-06-14T11:05:48;8.80;;;2.60;;
17424;SDS011;8830;50.978;5.058;2023-06-14T11:11:36;6.70;;;2.90;;
17424;SDS011;8830;50.978;5.058;2023-06-14T11:14:07;7.82;;;2.55;;
17424;SDS011;8830;50.978;5.058;2023-06-14T11:16:35;5.05;;;2.80;;
17424;SDS011;8830;50.978;5.058;2023-06-14T11:19:04;2.63;;;2.42;;
17424;SDS011;8830;50.978;5.058;2023-06-14T11:21:34;18.77;;;3.85;;
17424;SDS011;8830;50.978;5.058;2023-06-14T11:24:09;3.58;;;2.70;;
17424;SDS011;8830;50.978;5.058;2023-06-14T11:26:38;5.68;;;2.20;;
17424;SDS011;8830;50.978;5.058;2023-06-14T11:29:06;3.67;;;2.38;;
17424;SDS011;8830;50.978;5.058;2023-06-14T11:31:33;5.55;;;2.83;;
17424;SDS011;8830;50.978;5.058;2023-06-14T11:34:02;3.22;;;2.33;;
17424;SDS011;8830;50.978;5.058;2023-06-14T11:36:31;4.78;;;2.28;;
17424;SDS011;8830;50.978;5.058;2023-06-14T11:39:00;3.15;;;2.05;;
17424;SDS011;8830;50.978;5.058;2023-06-14T11:41:37;7.97;;;2.25;;
17424;SDS011;8830;50.978;5.058;2023-06-14T11:44:05;4.18;;;2.30;;
17424;SDS011;8830;50.978;5.058;2023-06-14T11:46:32;3.20;;;2.00;;
17424;SDS011;8830;50.978;5.058;2023-06-14T11:49:01;3.10;;;1.80;;
17424;SDS011;8830;50.978;5.058;2023-06-14T11:51:30;2.47;;;2.25;;
17424;SDS011;8830;50.978;5.058;2023-06-14T11:53:58;3.03;;;1.70;;
17424;SDS011;8830;50.978;5.058;2023-06-14T11:56:25;10.98;;;2.38;;
17424;SDS011;8830;50.978;5.058;2023-06-14T11:58:53;2.03;;;1.80;;
17424;SDS011;8830;50.978;5.058;2023-06-14T12:01:22;3.28;;;2.00;;
17424;SDS011;8830;50.978;5.058;2023-06-14T12:03:51;2.25;;;1.80;;
17424;SDS011;8830;50.978;5.058;2023-06-14T12:06:26;1.77;;;1.50;;
17424;SDS011;8830;50.978;5.058;2023-06-14T12:08:58;17.77;;;3.58;;
17424;SDS011;8830;50.978;5.058;2023-06-14T12:11:31;4.53;;;1.70;;
17424;SDS011;8830;50.978;5.058;2023-06-14T12:14:02;7.32;;;1.73;;
17424;SDS011;8830;50.978;5.058;2023-06-14T12:16:30;4.70;;;1.88;;
17424;SDS011;8830;50.978;5.058;2023-06-14T12:19:09;7.93;;;2.13;;
17424;SDS011;8830;50.978;5.058;2023-06-14T12:21:41;2.13;;;1.80;;
17424;SDS011;8830;50.978;5.058;2023-06-14T12:24:09;5.05;;;1.50;;
17424;SDS011;8830;50.978;5.058;2023-06-14T12:26:38;4.45;;;1.80;;
17424;SDS011;8830;50.978;5.058;2023-06-14T12:29:06;5.53;;;1.80;;
17424;SDS011;8830;50.978;5.058;2023-06-14T12:31:33;7.57;;;1.50;;
17424;SDS011;8830;50.978;5.058;2023-06-14T12:34:01;2.58;;;1.60;;
17424;SDS011;8830;50.978;5.058;2023-06-14T12:36:28;2.92;;;1.70;;
17424;SDS011;8830;50.978;5.058;2023-06-14T12:38:58;2.20;;;1.48;;
17424;SDS011;8830;50.978;5.058;2023-06-14T12:41:25;6.25;;;1.95;;
17424;SDS011;8830;50.978;5.058;2023-06-14T12:43:53;6.15;;;1.90;;
17424;SDS011;8830;50.978;5.058;2023-06-14T12:46:20;3.85;;;2.08;;
17424;SDS011;8830;50.978;5.058;2023-06-14T12:48:47;3.38;;;1.77;;
17424;SDS011;8830;50.978;5.058;2023-06-14T12:51:14;3.03;;;1.48;;
17424;SDS011;8830;50.978;5.058;2023-06-14T12:53:41;2.47;;;1.45;;
17424;SDS011;8830;50.978;5.058;2023-06-14T12:56:10;2.88;;;1.70;;
17424;SDS011;8830;50.978;5.058;2023-06-14T12:58:37;4.35;;;1.75;;
17424;SDS011;8830;50.978;5.058;2023-06-14T13:01:04;4.53;;;1.92;;
17424;SDS011;8830;50.978;5.058;2023-06-14T13:03:32;5.40;;;2.10;;
17424;SDS011;8830;50.978;5.058;2023-06-14T13:05:59;4.22;;;1.92;;
17424;SDS011;8830;50.978;5.058;2023-06-14T13:08:26;5.25;;;1.65;;
17424;SDS011;8830;50.978;5.058;2023-06-14T13:10:55;2.50;;;1.70;;
17424;SDS011;8830;50.978;5.058;2023-06-14T13:13:23;5.45;;;2.30;;
17424;SDS011;8830;50.978;5.058;2023-06-14T13:15:51;6.35;;;2.25;;
17424;SDS011;8830;50.978;5.058;2023-06-14T13:18:19;2.50;;;1.80;;
17424;SDS011;8830;50.978;5.058;2023-06-14T13:20:46;3.80;;;2.00;;
17424;SDS011;8830;50.978;5.058;2023-06-14T13:23:14;2.05;;;1.92;;
17424;SDS011;8830;50.978;5.058;2023-06-14T13:25:42;4.43;;;1.90;;
17424;SDS011;8830;50.978;5.058;2023-06-14T13:28:10;2.22;;;1.92;;
17424;SDS011;8830;50.978;5.058;2023-06-14T13:30:39;2.67;;;1.80;;
17424;SDS011;8830;50.978;5.058;2023-06-14T13:33:06;1.92;;;1.50;;
17424;SDS011;8830;50.978;5.058;2023-06-14T13:35:33;3.63;;;1.50;;
17424;SDS011;8830;50.978;5.058;2023-06-14T13:38:01;2.80;;;1.70;;
17424;SDS011;8830;50.978;5.058;2023-06-14T13:40:29;7.80;;;1.83;;
17424;SDS011;8830;50.978;5.058;2023-06-14T13:42:56;2.00;;;1.77;;
17424;SDS011;8830;50.978;5.058;2023-06-14T13:45:23;4.22;;;1.80;;
17424;SDS011;8830;50.978;5.058;2023-06-14T13:47:51;3.67;;;1.90;;
17424;SDS011;8830;50.978;5.058;2023-06-14T13:50:19;3.28;;;1.55;;
17424;SDS011;8830;50.978;5.058;2023-06-14T13:52:46;4.40;;;2.00;;
17424;SDS011;8830;50.978;5.058;2023-06-14T13:55:14;3.97;;;2.17;;
17424;SDS011;8830;50.978;5.058;2023-06-14T13:57:41;5.85;;;2.08;;
17424;SDS011;8830;50.978;5.058;2023-06-14T14:00:09;5.60;;;2.00;;
17424;SDS011;8830;50.978;5.058;2023-06-14T14:02:36;2.25;;;1.83;;
17424;SDS011;8830;50.978;5.058;2023-06-14T14:05:08;4.72;;;1.70;;
17424;SDS011;8830;50.978;5.058;2023-06-14T14:07:35;2.92;;;1.67;;
17424;SDS011;8830;50.978;5.058;2023-06-14T14:10:03;3.65;;;1.73;;
17424;SDS011;8830;50.978;5.058;2023-06-14T14:12:31;5.25;;;2.03;;
17424;SDS011;8830;50.978;5.058;2023-06-14T14:14:58;6.95;;;2.10;;
17424;SDS011;8830;50.978;5.058;2023-06-14T14:17:25;1.92;;;1.70;;
17424;SDS011;8830;50.978;5.058;2023-06-14T14:19:52;3.50;;;1.75;;
17424;SDS011;8830;50.978;5.058;2023-06-14T14:22:21;3.42;;;1.83;;
17424;SDS011;8830;50.978;5.058;2023-06-14T14:24:48;3.67;;;1.63;;
17424;SDS011;8830;50.978;5.058;2023-06-14T14:27:15;7.07;;;1.92;;
17424;SDS011;8830;50.978;5.058;2023-06-14T14:29:42;9.00;;;1.70;;
17424;SDS011;8830;50.978;5.058;2023-06-14T14:32:10;4.18;;;2.10;;
17424;SDS011;8830;50.978;5.058;2023-06-14T14:34:39;5.50;;;1.75;;
17424;SDS011;8830;50.978;5.058;2023-06-14T14:37:07;6.10;;;3.00;;
17424;SDS011;8830;50.978;5.058;2023-06-14T14:39:36;2.70;;;1.63;;
17424;SDS011;8830;50.978;5.058;2023-06-14T14:42:04;1.88;;;1.77;;
17424;SDS011;8830;50.978;5.058;2023-06-14T14:44:32;3.28;;;1.70;;
17424;SDS011;8830;50.978;5.058;2023-06-14T14:47:00;4.93;;;1.80;;
17424;SDS011;8830;50.978;5.058;2023-06-14T14:49:28;2.08;;;1.30;;
17424;SDS011;8830;50.978;5.058;2023-06-14T14:51:55;1.48;;;1.33;;
17424;SDS011;8830;50.978;5.058;2023-06-14T14:54:23;4.68;;;1.55;;
17424;SDS011;8830;50.978;5.058;2023-06-14T14:56:52;5.13;;;1.85;;
17424;SDS011;8830;50.978;5.058;2023-06-14T14:59:19;4.50;;;1.52;;
17424;SDS011;8830;50.978;5.058;2023-06-14T15:01:47;2.40;;;1.65;;
17424;SDS011;8830;50.978;5.058;2023-06-14T15:04:14;3.50;;;1.80;;
17424;SDS011;8830;50.978;5.058;2023-06-14T15:06:41;2.03;;;1.50;;
17424;SDS011;8830;50.978;5.058;2023-06-14T15:09:09;3.00;;;1.58;;
17424;SDS011;8830;50.978;5.058;2023-06-14T15:11:36;1.50;;;1.33;;
17424;SDS011;8830;50.978;5.058;2023-06-14T15:14:05;1.67;;;1.10;;
17424;SDS011;8830;50.978;5.058;2023-06-14T15:16:32;2.72;;;1.55;;
17424;SDS011;8830;50.978;5.058;2023-06-14T15:19:01;2.45;;;1.50;;
17424;SDS011;8830;50.978;5.058;2023-06-14T15:21:28;5.50;;;1.38;;